Time;durP1;ratioP1;P1;durP2;ratioP2;P2;SDS_P1;SDS_P2;PMS_P1;PMS_P2;Temp;Humidity;BMP_temperature;BMP_pressure;BME280_temperature;BME280_humidity;BME280_pressure;Samples;Min_cycle;Max_cycle;Signal;HPM_P1;HPM_P2
2022/01/01 00:01:41;;;;;;;131.50;70.80;;;11.50;99.90;;;;;;5071767;28;20040;-71
2022/01/01 00:04:07;;;;;;;122.18;58.63;;;11.50;99.90;;;;;;5076288;28;20118;-72
2022/01/01 00:06:32;;;;;;;120.47;60.45;;;11.60;99.90;;;;;;5070561;28;20468;-72
2022/01/01 00:08:58;;;;;;;127.47;65.82;;;11.50;99.90;;;;;;5072161;28;20040;-72
2022/01/01 00:11:26;;;;;;;120.30;67.80;;;11.60;99.90;;;;;;5070823;28;20058;-73
2022/01/01 00:13:52;;;;;;;123.00;67.25;;;11.50;99.90;;;;;;5072185;28;20024;-73
2022/01/01 00:16:17;;;;;;;118.20;65.53;;;11.50;99.90;;;;;;5074775;28;20081;-73
2022/01/01 00:18:43;;;;;;;123.28;61.80;;;11.50;99.90;;;;;;5087760;28;20041;-73
2022/01/01 00:21:08;;;;;;;110.97;56.10;;;11.50;99.90;;;;;;5074835;28;20032;-73
2022/01/01 00:23:34;;;;;;;110.60;53.10;;;11.50;99.90;;;;;;5072667;28;20487;-73
2022/01/01 00:26:00;;;;;;;111.28;53.22;;;11.50;99.90;;;;;;5074252;28;20021;-74
2022/01/01 00:28:25;;;;;;;115.35;55.95;;;11.50;99.90;;;;;;5071281;28;20089;-73
2022/01/01 00:30:51;;;;;;;101.35;47.72;;;11.50;99.90;;;;;;5088614;28;20078;-73
2022/01/01 00:33:16;;;;;;;85.10;38.28;;;11.60;99.90;;;;;;5084986;28;20448;-72
2022/01/01 00:35:42;;;;;;;76.43;33.85;;;11.60;99.90;;;;;;5092819;28;20027;-72
2022/01/01 00:38:08;;;;;;;91.68;33.70;;;11.60;99.90;;;;;;5092283;28;20137;-72
2022/01/01 00:40:33;;;;;;;81.00;34.00;;;11.60;99.90;;;;;;5073334;28;20077;-72
2022/01/01 00:43:02;;;;;;;74.20;34.42;;;11.50;99.90;;;;;;5072665;28;20032;-73
2022/01/01 00:45:28;;;;;;;82.22;33.58;;;11.60;99.90;;;;;;5071886;28;20029;-72
2022/01/01 00:47:54;;;;;;;68.93;28.60;;;11.60;99.90;;;;;;5071072;28;20025;-73
2022/01/01 00:50:19;;;;;;;83.18;31.02;;;11.60;99.90;;;;;;5071488;28;20424;-72
2022/01/01 00:52:45;;;;;;;64.38;26.75;;;11.60;99.90;;;;;;5071822;28;20111;-73
2022/01/01 00:55:11;;;;;;;72.47;25.48;;;11.50;99.90;;;;;;5070837;28;20090;-74
2022/01/01 00:57:36;;;;;;;74.10;28.40;;;11.60;99.90;;;;;;5071972;28;20028;-73
2022/01/01 01:00:04;;;;;;;67.28;27.88;;;11.60;99.90;;;;;;5073207;28;20059;-73
2022/01/01 01:02:31;;;;;;;93.32;40.03;;;11.60;99.90;;;;;;5075383;28;20442;-73
2022/01/01 01:04:57;;;;;;;121.95;56.80;;;11.60;99.90;;;;;;5075768;28;20053;-73
2022/01/01 01:07:22;;;;;;;107.75;52.20;;;11.60;99.90;;;;;;5085624;28;20460;-73
2022/01/01 01:09:48;;;;;;;83.93;38.65;;;11.70;99.90;;;;;;5095882;28;20058;-73
2022/01/01 01:12:20;;;;;;;80.70;30.20;;;11.60;99.90;;;;;;5095521;28;20028;-74
2022/01/01 01:14:46;;;;;;;85.43;33.90;;;11.70;99.90;;;;;;5095092;28;20020;-72
2022/01/01 01:17:12;;;;;;;72.97;25.27;;;11.80;99.90;;;;;;5095468;28;20032;-72
2022/01/01 01:19:38;;;;;;;58.20;24.88;;;11.80;99.90;;;;;;5095583;28;20020;-74
2022/01/01 01:22:04;;;;;;;64.97;21.83;;;11.80;99.90;;;;;;5094599;28;20078;-74
2022/01/01 01:24:29;;;;;;;59.28;23.75;;;11.80;99.90;;;;;;5095604;28;20020;-74
2022/01/01 01:27:00;;;;;;;56.88;23.90;;;11.80;99.90;;;;;;5095509;28;20383;-73
2022/01/01 01:29:25;;;;;;;63.00;25.48;;;11.80;99.90;;;;;;5094479;28;20028;-73
2022/01/01 01:31:51;;;;;;;64.90;23.85;;;11.80;99.90;;;;;;5095437;28;20107;-73
2022/01/01 01:34:17;;;;;;;65.30;25.25;;;11.90;99.90;;;;;;5095029;28;20024;-73
2022/01/01 01:36:42;;;;;;;63.25;22.90;;;11.90;99.90;;;;;;5094576;28;20032;-74
2022/01/01 01:39:08;;;;;;;59.08;21.83;;;11.90;99.90;;;;;;5094910;28;20100;-72
2022/01/01 01:41:34;;;;;;;65.32;24.50;;;12.00;99.90;;;;;;5095024;28;20055;-72
2022/01/01 01:44:00;;;;;;;54.10;23.67;;;12.00;99.90;;;;;;5094144;28;20494;-72
2022/01/01 01:46:26;;;;;;;72.90;26.27;;;12.10;99.90;;;;;;5094797;28;20438;-72
2022/01/01 01:48:52;;;;;;;53.67;22.55;;;12.00;99.90;;;;;;5095285;28;20032;-72
2022/01/01 01:51:18;;;;;;;59.80;23.63;;;12.10;99.90;;;;;;5093212;28;20085;-72
2022/01/01 01:53:44;;;;;;;67.57;25.73;;;12.10;99.90;;;;;;5085160;28;20028;-73
2022/01/01 01:56:10;;;;;;;57.33;25.35;;;12.10;99.90;;;;;;5077363;28;20028;-73
2022/01/01 01:58:35;;;;;;;66.85;30.25;;;12.00;99.90;;;;;;5073701;28;20035;-72
2022/01/01 02:03:27;;;;;;;61.95;26.80;;;11.90;99.90;;;;;;5073570;28;20150;-72
2022/01/01 02:05:53;;;;;;;67.07;27.35;;;11.90;99.90;;;;;;5074201;28;20024;-72
2022/01/01 02:08:19;;;;;;;69.15;29.85;;;11.90;99.90;;;;;;5074110;28;20056;-73
2022/01/01 02:10:48;;;;;;;68.05;31.13;;;11.90;99.90;;;;;;5073527;28;20143;-72
2022/01/01 02:13:23;;;;;;;75.30;32.05;;;11.80;99.90;;;;;;5074027;28;20020;-72
2022/01/01 02:16:13;;;;;;;66.43;28.42;;;11.80;99.90;;;;;;5074556;28;20028;-74
2022/01/01 02:18:34;;;;;;;71.00;27.92;;;11.80;99.90;;;;;;5074367;28;20027;-74
2022/01/01 02:20:59;;;;;;;60.97;25.33;;;11.80;99.90;;;;;;5074176;28;20108;-72
2022/01/01 02:23:27;;;;;;;76.40;34.03;;;11.80;99.90;;;;;;5073777;28;20087;-73
2022/01/01 02:25:56;;;;;;;90.97;38.45;;;11.70;99.90;;;;;;5073610;28;20028;-73
2022/01/01 02:28:22;;;;;;;93.85;38.72;;;11.70;99.90;;;;;;5073691;28;20111;-73
2022/01/01 02:30:56;;;;;;;82.75;35.28;;;12.50;99.90;;;;;;5074111;28;20356;-75
2022/01/01 02:33:21;;;;;;;85.78;32.63;;;11.50;99.90;;;;;;5073799;28;20036;-73
2022/01/01 02:35:47;;;;;;;61.47;28.17;;;11.50;99.90;;;;;;5075005;28;20021;-73
2022/01/01 02:38:13;;;;;;;63.83;28.65;;;11.40;99.90;;;;;;5073519;28;20107;-73
2022/01/01 02:40:38;;;;;;;70.90;31.48;;;11.20;99.90;;;;;;5072840;28;20111;-73
2022/01/01 02:43:04;;;;;;;63.90;28.67;;;11.10;99.90;;;;;;5073512;28;20036;-73
2022/01/01 02:45:30;;;;;;;71.45;32.78;;;11.10;99.90;;;;;;5075292;28;20024;-73
2022/01/01 02:47:56;;;;;;;67.22;32.30;;;11.10;99.90;;;;;;5073051;28;20404;-73
2022/01/01 02:50:22;;;;;;;63.47;31.80;;;11.10;99.90;;;;;;5073702;28;20354;-73
2022/01/01 02:52:47;;;;;;;65.07;30.23;;;11.10;99.90;;;;;;5072889;28;20467;-73
2022/01/01 02:55:13;;;;;;;68.32;27.85;;;11.20;99.90;;;;;;5073489;28;20024;-73
2022/01/01 02:57:39;;;;;;;62.67;28.13;;;11.30;99.90;;;;;;5073638;28;20401;-73
2022/01/01 03:00:05;;;;;;;75.28;31.48;;;11.40;99.90;;;;;;5072138;28;20045;-74
2022/01/01 03:02:31;;;;;;;51.20;25.63;;;11.40;99.90;;;;;;5073339;28;20043;-73
2022/01/01 03:04:59;;;;;;;53.30;23.98;;;11.40;99.90;;;;;;5073416;28;20016;-73
2022/01/01 03:07:25;;;;;;;47.58;22.33;;;11.40;99.90;;;;;;5072213;28;20032;-73
2022/01/01 03:09:50;;;;;;;55.20;24.00;;;11.40;99.90;;;;;;5073323;28;20031;-73
2022/01/01 03:12:16;;;;;;;70.95;25.15;;;11.40;99.90;;;;;;5073287;28;20028;-73
2022/01/01 03:14:42;;;;;;;56.25;23.33;;;11.40;99.90;;;;;;5072426;28;20021;-73
2022/01/01 03:17:10;;;;;;;54.95;22.85;;;11.40;99.90;;;;;;5072930;28;20025;-73
2022/01/01 03:19:36;;;;;;;49.65;23.50;;;11.40;99.90;;;;;;5072999;28;20028;-73
2022/01/01 03:22:03;;;;;;;51.17;22.45;;;11.40;99.90;;;;;;5071216;28;20037;-73
2022/01/01 03:24:28;;;;;;;53.85;23.70;;;11.40;99.90;;;;;;5073195;28;20017;-73
2022/01/01 03:26:54;;;;;;;51.25;22.42;;;11.40;99.90;;;;;;5073054;28;20353;-73
2022/01/01 03:29:19;;;;;;;55.35;23.30;;;11.50;99.90;;;;;;5072042;28;20016;-73
2022/01/01 03:31:45;;;;;;;49.28;22.35;;;11.50;99.90;;;;;;5072978;28;20538;-73
2022/01/01 03:34:14;;;;;;;63.58;24.45;;;11.50;99.90;;;;;;5072451;28;20028;-73
2022/01/01 03:36:39;;;;;;;59.88;23.27;;;11.50;99.90;;;;;;5071915;28;20024;-73
2022/01/01 03:39:06;;;;;;;60.55;23.90;;;11.50;99.90;;;;;;5072414;28;20354;-73
2022/01/01 03:41:31;;;;;;;54.72;23.27;;;11.50;99.90;;;;;;5072531;28;20535;-73
2022/01/01 03:43:57;;;;;;;54.17;22.60;;;11.60;99.90;;;;;;5071921;28;20115;-73
2022/01/01 03:46:22;;;;;;;59.45;24.20;;;11.60;99.90;;;;;;5072517;28;20146;-73
2022/01/01 03:48:48;;;;;;;53.83;22.42;;;11.70;99.90;;;;;;5072624;28;20384;-73
2022/01/01 03:51:14;;;;;;;46.97;22.02;;;11.70;99.90;;;;;;5072250;28;20112;-72
2022/01/01 03:53:39;;;;;;;47.88;19.35;;;11.70;99.90;;;;;;5072975;28;20029;-73
2022/01/01 03:56:07;;;;;;;38.30;18.05;;;11.70;99.90;;;;;;5071710;28;20025;-73
2022/01/01 03:58:33;;;;;;;39.95;18.20;;;11.60;99.90;;;;;;5072683;28;20499;-73
2022/01/01 04:00:58;;;;;;;36.92;17.08;;;11.50;99.90;;;;;;5072298;28;20040;-73
2022/01/01 04:03:24;;;;;;;41.40;16.65;;;11.50;99.90;;;;;;5071350;28;20406;-73
2022/01/01 04:05:49;;;;;;;37.95;16.77;;;11.40;99.90;;;;;;5071817;28;20480;-73
2022/01/01 04:08:15;;;;;;;37.00;16.55;;;11.40;99.90;;;;;;5072234;28;20032;-73
2022/01/01 04:10:41;;;;;;;41.17;15.65;;;11.40;99.90;;;;;;5071558;28;20082;-73
2022/01/01 04:13:08;;;;;;;31.65;14.85;;;11.40;99.90;;;;;;5072162;28;20025;-72
2022/01/01 04:15:35;;;;;;;43.67;15.07;;;11.30;99.90;;;;;;5072515;28;20035;-72
2022/01/01 04:18:03;;;;;;;33.08;15.73;;;11.30;99.90;;;;;;5071711;28;20104;-72
2022/01/01 04:20:29;;;;;;;39.95;15.85;;;11.20;99.90;;;;;;5072184;28;20048;-73
2022/01/01 04:22:56;;;;;;;34.35;14.85;;;11.10;99.90;;;;;;5072359;28;20087;-72
2022/01/01 04:25:23;;;;;;;30.92;13.93;;;11.10;99.90;;;;;;5071401;28;20036;-72
2022/01/01 04:27:49;;;;;;;31.02;13.25;;;11.10;99.90;;;;;;5072207;28;20029;-73
2022/01/01 04:30:15;;;;;;;36.83;13.10;;;11.10;99.90;;;;;;5072036;28;20089;-72
2022/01/01 04:32:41;;;;;;;24.15;13.02;;;11.10;99.90;;;;;;5071566;28;20036;-72
2022/01/01 04:35:07;;;;;;;27.35;12.27;;;11.10;99.90;;;;;;5075852;28;20032;-72
2022/01/01 04:37:33;;;;;;;31.20;14.43;;;11.20;99.90;;;;;;5076086;28;20028;-72
2022/01/01 04:39:59;;;;;;;29.50;13.32;;;11.20;99.90;;;;;;5075355;28;20463;-72
2022/01/01 04:42:29;;;;;;;25.83;14.38;;;11.30;99.90;;;;;;5075914;28;20047;-72
2022/01/01 04:44:55;;;;;;;25.70;12.95;;;11.40;99.90;;;;;;5076848;28;20175;-73
2022/01/01 04:47:20;;;;;;;26.58;13.05;;;11.40;99.90;;;;;;5075078;28;20115;-73
2022/01/01 04:49:46;;;;;;;30.23;12.70;;;11.50;99.90;;;;;;5075927;28;20023;-73
2022/01/01 04:52:11;;;;;;;31.70;13.65;;;11.50;99.90;;;;;;5074880;28;20024;-74
2022/01/01 04:54:41;;;;;;;24.35;13.77;;;11.60;99.90;;;;;;5076345;28;20487;-73
2022/01/01 04:57:07;;;;;;;25.08;12.80;;;11.60;99.90;;;;;;5075622;28;20028;-74
2022/01/01 04:59:37;;;;;;;26.58;13.02;;;11.60;99.90;;;;;;5075038;28;20035;-74
2022/01/01 05:02:03;;;;;;;29.58;13.18;;;11.60;99.90;;;;;;5075484;28;20036;-73
2022/01/01 05:04:29;;;;;;;31.52;12.50;;;11.60;99.90;;;;;;5075910;28;20025;-73
2022/01/01 05:06:54;;;;;;;28.40;12.65;;;11.70;99.90;;;;;;5075389;28;20031;-73
2022/01/01 05:09:20;;;;;;;31.58;14.30;;;11.70;99.90;;;;;;5075473;28;20029;-73
2022/01/01 05:11:49;;;;;;;24.38;12.98;;;11.70;99.90;;;;;;5075671;28;20516;-73
2022/01/01 05:14:16;;;;;;;33.30;15.25;;;11.70;99.90;;;;;;5074567;28;20025;-73
2022/01/01 05:16:42;;;;;;;23.80;12.77;;;11.70;99.90;;;;;;5075351;28;20438;-73
2022/01/01 05:19:08;;;;;;;29.52;11.85;;;11.70;99.90;;;;;;5075948;28;20105;-74
2022/01/01 05:21:35;;;;;;;38.58;12.18;;;11.70;99.90;;;;;;5080447;28;20080;-72
2022/01/01 05:24:03;;;;;;;26.10;11.80;;;11.70;99.90;;;;;;5079592;28;20027;-72
2022/01/01 05:26:29;;;;;;;20.88;10.85;;;11.80;99.90;;;;;;5076246;28;20028;-73
2022/01/01 05:28:55;;;;;;;32.83;11.95;;;11.70;99.90;;;;;;5073992;28;20181;-74
2022/01/01 05:31:20;;;;;;;22.98;10.77;;;11.70;99.90;;;;;;5074820;28;20044;-73
2022/01/01 05:33:46;;;;;;;23.63;10.65;;;11.60;99.90;;;;;;5075430;28;20029;-73
2022/01/01 05:36:13;;;;;;;22.75;10.93;;;11.60;99.90;;;;;;5074119;28;20024;-73
2022/01/01 05:38:39;;;;;;;20.75;10.10;;;11.50;99.90;;;;;;5074805;28;20028;-74
2022/01/01 05:41:04;;;;;;;18.35;10.85;;;11.50;99.90;;;;;;5074617;28;20033;-73
2022/01/01 05:43:30;;;;;;;20.27;10.02;;;11.50;99.90;;;;;;5074476;28;20017;-72
2022/01/01 05:45:58;;;;;;;20.70;10.23;;;11.50;99.90;;;;;;5074172;28;20035;-72
2022/01/01 05:48:24;;;;;;;21.08;11.27;;;11.40;99.90;;;;;;5074685;28;20017;-73
2022/01/01 05:50:49;;;;;;;17.55;9.77;;;11.50;99.90;;;;;;5074812;28;20103;-72
2022/01/01 05:53:16;;;;;;;18.75;8.52;;;11.40;99.90;;;;;;5074760;28;20078;-74
2022/01/01 05:55:41;;;;;;;28.08;10.13;;;11.40;99.90;;;;;;5074200;28;20032;-72
2022/01/01 05:58:07;;;;;;;18.45;10.40;;;11.40;99.90;;;;;;5074283;28;20491;-73
2022/01/01 06:00:34;;;;;;;23.20;9.57;;;11.40;99.90;;;;;;5073839;28;20556;-72
2022/01/01 06:03:00;;;;;;;18.67;9.40;;;11.40;99.90;;;;;;5074606;28;20282;-74
2022/01/01 06:05:26;;;;;;;13.98;9.07;;;11.40;99.90;;;;;;5073248;28;20518;-72
2022/01/01 06:07:57;;;;;;;24.65;8.88;;;11.50;99.90;;;;;;5073803;28;20028;-73
2022/01/01 06:10:23;;;;;;;16.83;7.80;;;11.60;99.90;;;;;;5074037;28;20840;-74
2022/01/01 06:12:49;;;;;;;23.88;8.73;;;11.70;99.90;;;;;;5073919;28;20472;-73
2022/01/01 06:15:14;;;;;;;23.15;8.30;;;11.70;99.90;;;;;;5073386;28;20089;-74
2022/01/01 06:17:40;;;;;;;17.85;9.32;;;11.70;99.90;;;;;;5073037;28;20024;-73
2022/01/01 06:20:06;;;;;;;18.67;9.85;;;11.80;99.90;;;;;;5073422;28;20088;-74
2022/01/01 06:22:31;;;;;;;24.95;11.60;;;11.70;99.90;;;;;;5073682;28;20044;-73
2022/01/01 06:24:57;;;;;;;22.45;12.30;;;11.80;99.90;;;;;;5072675;28;20100;-74
2022/01/01 06:27:23;;;;;;;20.27;11.90;;;11.80;99.90;;;;;;5078824;28;20032;-73
2022/01/01 06:29:48;;;;;;;29.23;9.98;;;11.90;99.90;;;;;;5076323;28;20028;-73
2022/01/01 06:32:14;;;;;;;25.75;9.80;;;11.90;99.90;;;;;;5072513;28;20021;-74
2022/01/01 06:34:39;;;;;;;22.20;10.27;;;11.90;99.90;;;;;;5073180;28;20020;-73
2022/01/01 06:37:05;;;;;;;17.50;8.90;;;12.00;99.90;;;;;;5075495;28;20020;-73
2022/01/01 06:39:31;;;;;;;22.67;9.60;;;12.00;99.90;;;;;;5075266;28;20399;-73
2022/01/01 06:41:56;;;;;;;15.13;8.73;;;11.90;99.90;;;;;;5073436;28;20109;-73
2022/01/01 06:44:22;;;;;;;19.23;9.30;;;11.90;99.90;;;;;;5092120;28;20441;-73
2022/01/01 06:46:47;;;;;;;18.95;9.18;;;11.90;99.90;;;;;;5091496;28;20031;-73
2022/01/01 06:49:13;;;;;;;21.10;9.38;;;11.90;99.90;;;;;;5092141;28;20103;-73
2022/01/01 06:51:38;;;;;;;15.57;9.15;;;11.90;99.90;;;;;;5091929;28;20024;-73
2022/01/01 06:54:05;;;;;;;21.30;9.55;;;11.90;99.90;;;;;;5089439;28;20379;-74
2022/01/01 06:56:30;;;;;;;24.40;9.70;;;11.90;99.90;;;;;;5080017;28;20451;-72
2022/01/01 06:58:56;;;;;;;20.70;9.55;;;11.90;99.90;;;;;;5091952;28;20055;-74
2022/01/01 07:01:21;;;;;;;20.55;10.50;;;11.90;99.90;;;;;;5091480;28;20543;-73
2022/01/01 07:03:47;;;;;;;22.33;9.82;;;11.90;99.90;;;;;;5093453;28;20296;-72
2022/01/01 07:06:12;;;;;;;21.30;9.55;;;11.90;99.90;;;;;;5090792;28;20063;-74
2022/01/01 07:08:38;;;;;;;16.73;9.23;;;11.90;99.90;;;;;;5092011;28;20067;-74
2022/01/01 07:11:03;;;;;;;19.20;9.68;;;12.00;99.90;;;;;;5091239;28;20107;-75
2022/01/01 07:13:29;;;;;;;18.00;9.40;;;11.90;99.90;;;;;;5091164;28;20071;-74
2022/01/01 07:15:55;;;;;;;19.13;9.27;;;12.00;99.90;;;;;;5092071;28;20024;-72
2022/01/01 07:18:20;;;;;;;18.48;8.57;;;12.00;99.90;;;;;;5090934;28;20025;-72
2022/01/01 07:20:46;;;;;;;20.48;9.20;;;12.00;99.90;;;;;;5091189;28;20031;-72
2022/01/01 07:23:12;;;;;;;20.25;9.35;;;12.00;99.90;;;;;;5091243;28;20028;-72
2022/01/01 07:25:37;;;;;;;23.50;8.73;;;12.10;99.90;;;;;;5084994;28;20107;-74
2022/01/01 07:28:03;;;;;;;13.40;7.50;;;12.10;99.90;;;;;;5090177;28;20442;-74
2022/01/01 07:30:29;;;;;;;15.70;8.05;;;12.00;99.90;;;;;;5091522;28;20020;-74
2022/01/01 07:32:55;;;;;;;18.05;7.60;;;12.00;99.90;;;;;;5091357;28;20395;-73
2022/01/01 07:35:24;;;;;;;14.77;7.28;;;12.00;99.90;;;;;;5090743;28;20073;-73
2022/01/01 07:37:50;;;;;;;16.20;7.78;;;12.40;99.90;;;;;;5090711;28;20399;-74
2022/01/01 07:40:17;;;;;;;16.73;7.30;;;12.00;99.90;;;;;;5091468;28;20039;-74
2022/01/01 07:42:43;;;;;;;13.98;6.90;;;12.10;99.90;;;;;;5090192;28;20032;-73
2022/01/01 07:45:09;;;;;;;18.42;8.07;;;12.10;99.90;;;;;;5091313;28;20053;-74
2022/01/01 07:47:35;;;;;;;20.70;8.23;;;12.10;99.90;;;;;;5091211;28;20028;-73
2022/01/01 07:50:01;;;;;;;16.27;8.18;;;12.10;99.90;;;;;;5090544;28;20134;-72
2022/01/01 07:52:27;;;;;;;13.30;7.63;;;12.10;99.90;;;;;;5090759;28;20026;-72
2022/01/01 07:54:52;;;;;;;18.42;8.98;;;12.10;99.90;;;;;;5090733;28;20016;-73
2022/01/01 07:57:18;;;;;;;13.95;8.00;;;12.10;99.90;;;;;;5091036;28;20051;-72
2022/01/01 07:59:43;;;;;;;16.83;8.13;;;12.00;99.90;;;;;;5090174;28;20048;-72
2022/01/01 08:02:09;;;;;;;13.38;7.88;;;12.10;99.90;;;;;;5090209;28;20107;-72
2022/01/01 08:04:34;;;;;;;23.02;8.35;;;12.10;99.90;;;;;;5090716;28;20463;-73
2022/01/01 08:07:01;;;;;;;13.93;7.75;;;12.00;99.90;;;;;;5087184;28;20020;-73
2022/01/01 08:09:28;;;;;;;15.20;8.38;;;12.10;99.90;;;;;;5083734;28;20051;-72
2022/01/01 08:11:54;;;;;;;16.73;8.80;;;12.10;99.90;;;;;;5080486;28;20035;-73
2022/01/01 08:14:20;;;;;;;16.13;7.68;;;12.00;99.90;;;;;;5083963;28;20465;-73
2022/01/01 08:17:00;;;;;;;13.70;8.25;;;12.10;99.90;;;;;;5078797;28;20024;-73
2022/01/01 08:19:27;;;;;;;16.27;8.88;;;12.10;99.90;;;;;;5088274;28;20471;-73
2022/01/01 08:21:53;;;;;;;13.95;8.05;;;12.10;99.90;;;;;;5090337;28;20075;-72
2022/01/01 08:24:19;;;;;;;19.80;8.68;;;12.10;99.90;;;;;;5083006;28;20041;-73
2022/01/01 08:26:44;;;;;;;14.82;7.72;;;12.10;99.90;;;;;;5089823;28;20020;-73
2022/01/01 08:29:10;;;;;;;18.20;8.32;;;12.10;99.90;;;;;;5090232;28;20020;-72
2022/01/01 08:31:36;;;;;;;11.45;6.90;;;12.10;99.90;;;;;;5089760;28;20039;-73
2022/01/01 08:34:01;;;;;;;15.43;7.35;;;12.20;99.90;;;;;;5090391;28;20032;-73
2022/01/01 08:36:27;;;;;;;12.98;7.25;;;12.20;99.90;;;;;;5089736;28;20024;-73
2022/01/01 08:38:52;;;;;;;10.68;7.13;;;12.20;99.90;;;;;;5090197;28;20487;-73
2022/01/01 08:41:18;;;;;;;10.95;7.03;;;12.20;99.90;;;;;;5089798;28;20035;-73
2022/01/01 08:43:44;;;;;;;11.80;7.00;;;12.20;99.90;;;;;;5089357;28;20027;-73
2022/01/01 08:46:10;;;;;;;10.27;6.93;;;12.20;99.90;;;;;;5087080;28;20028;-73
2022/01/01 08:48:36;;;;;;;12.65;7.20;;;12.20;99.90;;;;;;5090518;28;20040;-74
2022/01/01 08:51:17;;;;;;;13.18;6.72;;;12.20;99.90;;;;;;5090466;28;20426;-74
2022/01/01 08:53:43;;;;;;;9.73;6.45;;;12.20;99.90;;;;;;5088620;28;20024;-74
2022/01/01 08:56:09;;;;;;;13.73;7.18;;;12.20;99.90;;;;;;5085997;28;20024;-73
2022/01/01 08:58:39;;;;;;;12.38;6.88;;;12.10;99.90;;;;;;5085114;28;20024;-74
2022/01/01 09:01:05;;;;;;;17.17;8.05;;;12.10;99.90;;;;;;5089247;28;20483;-74
2022/01/01 09:03:31;;;;;;;15.43;8.05;;;12.00;99.90;;;;;;5090969;28;20028;-75
2022/01/01 09:05:56;;;;;;;15.45;8.65;;;12.10;99.90;;;;;;5089613;28;20567;-74
2022/01/01 09:08:22;;;;;;;11.40;7.75;;;12.00;99.90;;;;;;5078026;28;20090;-74
2022/01/01 09:10:47;;;;;;;10.75;7.50;;;12.00;99.90;;;;;;5079083;28;20028;-73
2022/01/01 09:13:13;;;;;;;13.10;7.50;;;12.00;99.90;;;;;;5081171;28;20040;-73
2022/01/01 09:15:39;;;;;;;11.25;7.78;;;12.00;99.90;;;;;;5082375;28;20333;-74
2022/01/01 09:18:04;;;;;;;16.92;8.70;;;12.00;99.90;;;;;;5083198;28;20074;-73
2022/01/01 09:20:30;;;;;;;16.10;8.25;;;12.00;99.90;;;;;;5086665;28;20546;-72
2022/01/01 09:22:55;;;;;;;14.63;8.70;;;12.00;99.90;;;;;;5082139;28;20033;-73
2022/01/01 09:25:21;;;;;;;15.88;8.90;;;12.00;99.90;;;;;;5089817;28;20037;-73
2022/01/01 09:27:47;;;;;;;14.45;8.50;;;12.00;99.90;;;;;;5088585;28;20549;-73
2022/01/01 09:30:15;;;;;;;22.70;9.85;;;12.00;99.90;;;;;;5093191;28;20024;-73
2022/01/01 09:32:40;;;;;;;23.50;11.30;;;12.10;99.90;;;;;;5093636;28;20058;-73
2022/01/01 09:35:07;;;;;;;21.42;10.13;;;12.00;99.90;;;;;;5092894;28;20056;-73
2022/01/01 09:37:32;;;;;;;18.63;10.18;;;12.00;99.90;;;;;;5094182;28;20106;-73
2022/01/01 09:39:59;;;;;;;23.77;12.35;;;12.10;99.90;;;;;;5088452;28;20123;-73
2022/01/01 09:42:25;;;;;;;18.63;11.10;;;12.10;99.90;;;;;;5092509;28;20396;-73
2022/01/01 09:44:56;;;;;;;21.23;11.20;;;12.10;99.90;;;;;;5093493;28;20035;-74
2022/01/01 09:47:23;;;;;;;16.35;10.70;;;12.20;99.90;;;;;;5093414;28;20385;-74
2022/01/01 09:49:48;;;;;;;21.23;12.82;;;12.20;99.90;;;;;;5093160;28;20028;-74
2022/01/01 09:52:15;;;;;;;23.42;11.85;;;12.20;99.90;;;;;;5093366;28;20031;-73
2022/01/01 09:54:41;;;;;;;17.25;11.88;;;12.30;99.90;;;;;;5092440;28;20016;-74
2022/01/01 09:57:10;;;;;;;22.00;12.70;;;12.30;99.90;;;;;;5092670;28;20475;-74
2022/01/01 09:59:37;;;;;;;23.35;13.70;;;12.40;99.90;;;;;;5093357;28;20061;-74
2022/01/01 10:02:03;;;;;;;24.63;14.05;;;12.40;99.90;;;;;;5092318;28;20036;-74
2022/01/01 10:04:43;;;;;;;22.95;14.02;;;12.50;99.90;;;;;;5093801;28;20024;-73
2022/01/01 10:07:09;;;;;;;25.85;14.73;;;12.50;99.90;;;;;;5093159;28;20053;-73
2022/01/01 10:09:39;;;;;;;23.30;13.50;;;12.50;99.90;;;;;;5093142;28;20062;-72
2022/01/01 10:12:10;;;;;;;23.75;14.55;;;12.60;99.90;;;;;;5092123;28;20059;-73
2022/01/01 10:14:36;;;;;;;;;;;12.60;99.90;;;;;;5093238;28;20105;-73
2022/01/01 10:17:13;;;;;;;29.90;14.68;;;12.60;99.90;;;;;;5091937;28;19910;-74
2022/01/01 10:19:39;;;;;;;23.02;15.43;;;12.60;99.90;;;;;;5092789;28;20021;-72
2022/01/01 10:22:12;;;;;;;24.33;14.55;;;12.60;99.90;;;;;;5090238;28;20040;-74
2022/01/01 10:27:46;;;;;;;20.98;14.40;;;12.60;99.90;;;;;;5092635;28;20085;-73
2022/01/01 10:30:20;;;;;;;24.40;16.23;;;12.50;99.90;;;;;;5091856;28;20043;-74
2022/01/01 10:33:12;;;;;;;26.88;16.00;;;12.50;99.90;;;;;;5092521;28;20032;-73
2022/01/01 10:36:04;;;;;;;27.33;16.88;;;12.50;99.90;;;;;;5092148;28;20107;-73
2022/01/01 10:38:29;;;;;;;21.15;16.30;;;12.50;99.90;;;;;;5085970;28;20024;-71
2022/01/01 10:41:06;;;;;;;27.42;17.17;;;12.60;99.90;;;;;;5081899;28;20484;-72
2022/01/01 10:43:39;;;;;;;25.42;16.67;;;12.70;99.90;;;;;;5086469;28;20088;-73
2022/01/01 10:46:07;;;;;;;31.95;17.27;;;12.70;99.90;;;;;;5091761;28;20438;-74
2022/01/01 10:51:05;;;;;;;27.65;17.88;;;12.80;99.90;;;;;;5091442;28;20527;-70
2022/01/01 10:53:31;;;;;;;29.38;18.25;;;12.80;99.90;;;;;;5091879;28;20036;-76
2022/01/01 10:56:18;;;;;;;27.40;17.70;;;12.80;99.90;;;;;;5091902;28;20039;-76
2022/01/01 10:58:44;;;;;;;24.15;17.15;;;12.90;99.90;;;;;;5090522;28;20028;-76
2022/01/01 11:01:10;;;;;;;29.23;17.30;;;12.90;99.90;;;;;;5093887;28;20054;-77
2022/01/01 11:03:42;;;;;;;27.65;17.52;;;12.90;99.90;;;;;;5092514;28;20478;-76
2022/01/01 11:06:13;;;;;;;24.40;16.10;;;12.90;99.90;;;;;;5089668;28;20134;-78
2022/01/01 11:08:43;;;;;;;24.60;16.85;;;12.80;99.90;;;;;;5089927;28;20388;-78
2022/01/01 11:11:12;;;;;;;25.70;16.80;;;12.80;99.90;;;;;;5089133;28;20023;-77
2022/01/01 11:13:38;;;;;;;27.50;17.23;;;12.80;99.90;;;;;;5090344;28;20019;-77
2022/01/01 11:16:05;;;;;;;21.23;15.60;;;12.80;99.90;;;;;;5090782;28;20035;-77
2022/01/01 11:18:35;;;;;;;26.63;16.52;;;12.80;99.90;;;;;;5091241;28;20028;-76
2022/01/01 11:21:03;;;;;;;27.08;17.15;;;12.80;99.90;;;;;;5089583;28;20107;-76
2022/01/01 11:23:28;;;;;;;21.60;15.60;;;12.80;99.90;;;;;;5090251;28;20039;-77
2022/01/01 11:25:54;;;;;;;24.00;15.32;;;12.90;99.90;;;;;;5089449;28;20410;-76
2022/01/01 11:28:21;;;;;;;20.27;14.60;;;13.00;99.90;;;;;;5089697;28;20514;-76
2022/01/01 11:30:49;;;;;;;19.48;13.50;;;13.10;99.90;;;;;;5088085;28;20015;-76
2022/01/01 11:33:30;;;;;;;23.00;14.05;;;13.10;99.90;;;;;;5089293;28;20045;-76
2022/01/01 11:35:57;;;;;;;;;;;13.30;99.90;;;;;;5091631;28;20047;-76
2022/01/01 11:38:24;;;;;;;21.83;13.65;;;13.40;99.90;;;;;;5090398;28;19919;-76
2022/01/01 11:41:11;;;;;;;23.35;14.10;;;13.50;99.90;;;;;;5087386;28;20028;-76
2022/01/01 11:43:53;;;;;;;15.35;12.57;;;13.50;99.90;;;;;;5089104;28;20023;-77
2022/01/01 11:46:30;;;;;;;17.40;12.48;;;13.50;99.90;;;;;;5090282;28;20028;-75
2022/01/01 11:48:57;;;;;;;19.63;12.88;;;13.50;99.90;;;;;;5089503;28;20024;-75
2022/01/01 11:51:38;;;;;;;21.30;12.75;;;13.40;99.90;;;;;;5087417;28;20039;-75
2022/01/01 11:54:04;;;;;;;22.10;12.38;;;13.40;99.90;;;;;;5083273;28;20020;-74
2022/01/01 11:56:49;;;;;;;18.80;12.80;;;13.40;99.90;;;;;;5084542;28;20016;-75
2022/01/01 11:59:22;;;;;;;19.40;13.68;;;13.40;99.90;;;;;;5084489;28;20020;-75
2022/01/01 12:02:11;;;;;;;14.38;11.25;;;13.30;99.90;;;;;;5079234;28;20071;-77
2022/01/01 12:04:44;;;;;;;14.20;11.32;;;13.30;99.90;;;;;;5090480;28;20417;-77
2022/01/01 12:07:11;;;;;;;16.17;11.75;;;13.20;99.90;;;;;;5085823;28;20725;-77
2022/01/01 12:09:55;;;;;;;16.30;12.57;;;13.20;99.90;;;;;;5085363;28;20028;-77
2022/01/01 12:12:50;;;;;;;25.15;13.60;;;13.30;99.90;;;;;;5091691;28;20016;-76
2022/01/01 12:15:24;;;;;;;16.48;11.65;;;13.20;99.90;;;;;;5089877;28;20027;-74
2022/01/01 12:17:54;;;;;;;19.65;11.73;;;13.20;99.90;;;;;;5091194;28;20161;-75
2022/01/01 12:20:23;;;;;;;12.30;10.90;;;13.20;99.90;;;;;;5090597;28;20027;-75
2022/01/01 12:22:50;;;;;;;14.38;12.18;;;13.20;99.90;;;;;;5090477;28;20046;-76
2022/01/01 12:25:17;;;;;;;14.85;11.98;;;13.20;99.90;;;;;;5090096;28;20024;-75
2022/01/01 12:27:47;;;;;;;15.88;12.85;;;13.30;99.90;;;;;;5091305;28;20027;-75
2022/01/01 12:30:14;;;;;;;19.40;12.95;;;13.20;99.90;;;;;;5084963;28;20044;-75
2022/01/01 12:32:45;;;;;;;15.70;12.57;;;13.30;99.90;;;;;;5091226;28;20040;-77
2022/01/01 12:35:44;;;;;;;15.68;12.48;;;13.40;99.90;;;;;;5084170;28;20107;-77
2022/01/01 12:38:12;;;;;;;15.80;11.25;;;13.50;99.90;;;;;;5088058;28;20028;-77
2022/01/01 12:41:05;;;;;;;14.40;12.10;;;13.50;99.90;;;;;;5087337;28;20051;-77